createdAt,value
2022-10-22T00:00:15.294Z,8.60
2022-10-22T00:02:45.127Z,8.57
2022-10-22T00:05:12.663Z,8.57
2022-10-22T00:07:40.758Z,8.55
2022-10-22T00:10:09.315Z,8.54
2022-10-22T00:12:38.388Z,8.52
2022-10-22T00:15:07.703Z,8.49
2022-10-22T00:17:35.728Z,8.47
2022-10-22T00:20:04.918Z,8.43
2022-10-22T00:22:33.471Z,8.38
2022-10-22T00:25:01.010Z,8.35
2022-10-22T00:27:28.727Z,8.31
2022-10-22T00:29:56.331Z,8.26
2022-10-22T00:32:23.839Z,8.24
2022-10-22T00:34:51.470Z,8.20
2022-10-22T00:37:19.140Z,8.15
2022-10-22T00:39:46.717Z,8.09
2022-10-22T00:42:23.774Z,8.05
2022-10-22T00:45:15.377Z,8.02
2022-10-22T00:47:54.328Z,7.98
2022-10-22T00:50:33.298Z,7.93
2022-10-22T00:53:02.908Z,7.90
2022-10-22T00:55:32.815Z,7.89
2022-10-22T00:58:02.130Z,7.90
2022-10-22T01:00:30.375Z,7.90
2022-10-22T01:02:59.266Z,7.92
2022-10-22T01:05:31.786Z,7.92
2022-10-22T01:08:02.946Z,7.90
2022-10-22T01:10:45.532Z,7.89
2022-10-22T01:13:30.732Z,7.89
2022-10-22T01:16:11.482Z,7.89
2022-10-22T01:19:13.368Z,7.89
2022-10-22T01:21:49.185Z,7.87
2022-10-22T01:24:42.090Z,7.84
2022-10-22T01:28:04.497Z,7.84
2022-10-22T01:30:40.095Z,7.83
2022-10-22T01:33:13.147Z,7.86
2022-10-22T01:35:45.952Z,7.92
2022-10-22T01:38:19.482Z,7.95
2022-10-22T01:40:51.565Z,8.03
2022-10-22T01:43:23.526Z,8.10
2022-10-22T01:46:02.391Z,8.15
2022-10-22T01:49:10.777Z,8.25
2022-10-22T01:51:56.010Z,8.31
2022-10-22T01:54:40.242Z,8.40
2022-10-22T01:57:31.463Z,8.47
2022-10-22T02:00:09.555Z,8.51
2022-10-22T02:02:51.453Z,8.58
2022-10-22T02:05:47.076Z,8.60
2022-10-22T02:08:24.568Z,8.61
2022-10-22T02:10:53.545Z,8.61
2022-10-22T02:13:43.077Z,8.61
2022-10-22T02:16:18.830Z,8.60
2022-10-22T02:18:50.041Z,8.61
2022-10-22T02:21:18.059Z,8.61
2022-10-22T02:23:46.351Z,8.59
2022-10-22T02:26:33.940Z,8.56
2022-10-22T02:29:15.504Z,8.56
2022-10-22T02:31:46.491Z,8.57
2022-10-22T02:34:19.535Z,8.57
2022-10-22T02:36:50.366Z,8.53
2022-10-22T02:39:20.690Z,8.52
2022-10-22T02:41:48.938Z,8.50
2022-10-22T02:44:20.488Z,8.50
2022-10-22T02:46:48.426Z,8.48
2022-10-22T02:49:16.355Z,8.45
2022-10-22T02:51:43.859Z,8.44
2022-10-22T02:54:11.286Z,8.44
2022-10-22T02:56:38.648Z,8.44
2022-10-22T02:59:06.286Z,8.42
2022-10-22T03:01:33.986Z,8.38
2022-10-22T03:04:01.528Z,8.37
2022-10-22T03:06:29.197Z,8.35
2022-10-22T03:08:56.765Z,8.36
2022-10-22T03:11:24.407Z,8.34
2022-10-22T03:13:51.963Z,8.33
2022-10-22T03:16:19.491Z,8.34
2022-10-22T03:18:47.215Z,8.38
2022-10-22T03:21:38.433Z,8.39
2022-10-22T03:24:11.337Z,8.39
2022-10-22T03:26:41.394Z,8.38
2022-10-22T03:29:11.414Z,8.37
2022-10-22T03:31:38.921Z,8.35
2022-10-22T03:34:06.349Z,8.35
2022-10-22T03:36:33.993Z,8.36
2022-10-22T03:39:03.982Z,8.36
2022-10-22T03:41:31.978Z,8.39
2022-10-22T03:44:02.031Z,8.43
2022-10-22T03:46:29.520Z,8.47
2022-10-22T03:48:57.114Z,8.50
2022-10-22T03:51:27.607Z,8.49
2022-10-22T03:53:55.501Z,8.52
2022-10-22T03:56:23.805Z,8.52
2022-10-22T03:58:51.395Z,8.53
2022-10-22T04:01:19.131Z,8.54
2022-10-22T04:03:46.984Z,8.58
2022-10-22T04:06:14.733Z,8.61
2022-10-22T04:08:44.208Z,8.64
2022-10-22T04:11:13.580Z,8.63
2022-10-22T04:13:42.131Z,8.65
2022-10-22T04:16:22.622Z,8.67
2022-10-22T04:18:51.411Z,8.66
2022-10-22T04:21:19.939Z,8.65
2022-10-22T04:23:50.584Z,8.65
2022-10-22T04:26:19.445Z,8.65
2022-10-22T04:28:48.996Z,8.68
2022-10-22T04:31:23.268Z,8.70
2022-10-22T04:33:56.355Z,8.70
2022-10-22T04:36:25.569Z,8.69
2022-10-22T04:38:57.659Z,8.67
2022-10-22T04:41:33.289Z,8.65
2022-10-22T04:44:01.237Z,8.62
2022-10-22T04:46:31.848Z,8.62
2022-10-22T04:49:00.192Z,8.60
2022-10-22T04:51:28.091Z,8.61
2022-10-22T04:53:55.752Z,8.62
2022-10-22T04:56:26.829Z,8.62
2022-10-22T04:58:58.594Z,8.64
2022-10-22T05:01:31.179Z,8.65
2022-10-22T05:04:01.625Z,8.65
2022-10-22T05:06:31.483Z,8.65
2022-10-22T05:09:03.940Z,8.67
2022-10-22T05:11:35.863Z,8.69
2022-10-22T05:14:07.187Z,8.70
2022-10-22T05:16:37.474Z,8.71
2022-10-22T05:19:06.520Z,8.74
2022-10-22T05:21:34.814Z,8.75
2022-10-22T05:24:03.436Z,8.77
2022-10-22T05:26:30.990Z,8.80
2022-10-22T05:28:58.501Z,8.83
2022-10-22T05:31:27.929Z,8.84
2022-10-22T05:33:55.740Z,8.86
2022-10-22T05:36:23.619Z,8.86
2022-10-22T05:38:51.604Z,8.87
2022-10-22T05:41:22.603Z,8.89
2022-10-22T05:43:51.396Z,8.93
2022-10-22T05:46:23.020Z,8.97
2022-10-22T05:48:53.423Z,8.98
2022-10-22T05:51:22.256Z,9.00
2022-10-22T05:53:55.996Z,9.02
2022-10-22T05:56:24.469Z,9.01
2022-10-22T05:58:52.399Z,9.04
2022-10-22T06:01:27.895Z,9.06
2022-10-22T06:03:59.108Z,9.10
2022-10-22T06:06:51.599Z,9.16
2022-10-22T06:09:29.304Z,9.22
2022-10-22T06:11:58.317Z,9.30
2022-10-22T06:14:27.523Z,9.36
2022-10-22T06:16:55.502Z,9.43
2022-10-22T06:19:25.526Z,9.50
2022-10-22T06:21:53.473Z,9.57
2022-10-22T06:24:21.159Z,9.62
2022-10-22T06:26:52.219Z,9.67
2022-10-22T06:29:19.782Z,9.70
2022-10-22T06:31:47.526Z,9.74
2022-10-22T06:34:17.927Z,9.76
2022-10-22T06:36:46.381Z,9.81
2022-10-22T06:39:16.416Z,9.86
2022-10-22T06:41:44.276Z,9.93
2022-10-22T06:44:15.426Z,9.98
2022-10-22T06:46:43.707Z,10.03
2022-10-22T06:49:16.662Z,10.07
2022-10-22T06:51:44.642Z,10.13
2022-10-22T06:54:12.506Z,10.26
2022-10-22T06:56:40.328Z,10.40
2022-10-22T06:59:08.075Z,10.57
2022-10-22T07:01:36.601Z,10.73
2022-10-22T07:04:05.946Z,10.93
2022-10-22T07:06:33.429Z,11.09
2022-10-22T07:09:01.461Z,11.24
2022-10-22T07:11:34.736Z,11.41
2022-10-22T07:14:02.281Z,11.56
2022-10-22T07:16:32.539Z,11.74
2022-10-22T07:19:02.103Z,11.89
2022-10-22T07:21:30.836Z,12.04
2022-10-22T07:23:59.319Z,12.18
2022-10-22T07:26:30.193Z,12.31
2022-10-22T07:28:58.840Z,12.44
2022-10-22T07:31:26.601Z,12.60
2022-10-22T07:33:54.253Z,12.72
2022-10-22T07:36:21.718Z,12.85
2022-10-22T07:38:54.064Z,12.97
2022-10-22T07:41:23.285Z,13.08
2022-10-22T07:43:51.343Z,13.17
2022-10-22T07:46:19.877Z,13.24
2022-10-22T07:48:47.464Z,13.34
2022-10-22T07:51:15.670Z,13.42
2022-10-22T07:53:43.279Z,13.54
2022-10-22T07:56:10.953Z,13.64
2022-10-22T07:58:38.037Z,13.77
2022-10-22T08:01:05.811Z,13.88
2022-10-22T08:03:34.139Z,13.97
2022-10-22T08:06:02.729Z,14.07
2022-10-22T08:08:30.947Z,14.19
2022-10-22T08:11:01.475Z,14.25
2022-10-22T08:13:30.264Z,14.33
2022-10-22T08:16:00.135Z,14.42
2022-10-22T08:18:28.492Z,14.51
2022-10-22T08:20:57.065Z,14.53
2022-10-22T08:23:27.577Z,14.53
2022-10-22T08:25:54.892Z,14.53
2022-10-22T08:28:22.961Z,14.58
2022-10-22T08:30:50.413Z,14.65
2022-10-22T08:33:20.028Z,14.75
2022-10-22T08:35:49.833Z,14.83
2022-10-22T08:38:18.487Z,14.95
2022-10-22T08:40:52.733Z,15.07
2022-10-22T08:44:02.331Z,15.21
2022-10-22T08:46:52.205Z,15.32
2022-10-22T08:49:27.883Z,15.42
2022-10-22T08:51:57.893Z,15.54
2022-10-22T08:54:39.652Z,15.68
2022-10-22T08:57:29.182Z,15.79
2022-10-22T09:00:08.406Z,15.88
2022-10-22T09:03:08.979Z,15.95
2022-10-22T09:05:46.505Z,16.01
2022-10-22T09:08:17.077Z,16.06
2022-10-22T09:10:49.253Z,16.18
2022-10-22T09:13:20.753Z,16.35
2022-10-22T09:15:56.458Z,16.58
2022-10-22T09:19:04.157Z,16.82
2022-10-22T09:21:43.181Z,17.00
2022-10-22T09:24:42.035Z,17.11
2022-10-22T09:27:16.591Z,17.20
2022-10-22T09:29:47.080Z,17.25
2022-10-22T09:32:16.920Z,17.29
2022-10-22T09:34:47.554Z,17.38
2022-10-22T09:37:19.374Z,17.47
2022-10-22T09:39:52.982Z,17.51
2022-10-22T09:42:21.531Z,17.55
2022-10-22T09:44:56.581Z,17.53
2022-10-22T09:50:42.755Z,17.40
2022-10-22T09:53:29.290Z,17.34
2022-10-22T09:56:00.905Z,17.21
2022-10-22T09:58:28.401Z,17.16
2022-10-22T10:01:01.168Z,17.12
2022-10-22T10:03:35.578Z,17.00
2022-10-22T10:06:06.020Z,16.93
2022-10-22T10:08:34.094Z,16.84
2022-10-22T10:11:07.189Z,16.81
2022-10-22T10:13:54.931Z,16.81
2022-10-22T10:16:51.270Z,16.83
2022-10-22T10:19:42.782Z,16.83
2022-10-22T10:22:42.372Z,16.84
2022-10-22T10:25:35.717Z,16.92
2022-10-22T10:28:30.143Z,17.00
2022-10-22T10:31:23.047Z,17.16
2022-10-22T10:34:11.219Z,17.31
2022-10-22T10:37:01.847Z,17.47
2022-10-22T10:40:03.315Z,17.63
2022-10-22T10:42:42.147Z,17.82
2022-10-22T10:45:30.034Z,17.98
2022-10-22T10:48:50.640Z,18.11
2022-10-22T10:51:38.773Z,18.29
2022-10-22T10:54:35.451Z,18.43
2022-10-22T10:57:10.967Z,18.55
2022-10-22T11:00:04.576Z,18.68
2022-10-22T11:03:10.923Z,18.71
2022-10-22T11:05:54.609Z,18.65
2022-10-22T11:08:32.899Z,18.62
2022-10-22T11:11:08.966Z,18.58
2022-10-22T11:13:53.199Z,18.53
2022-10-22T11:16:36.195Z,18.47
2022-10-22T11:19:46.070Z,18.46
2022-10-22T11:22:31.904Z,18.45
2022-10-22T11:25:17.128Z,18.45
2022-10-22T11:28:10.362Z,18.46
2022-10-22T11:30:37.992Z,18.52
2022-10-22T11:33:16.458Z,18.59
2022-10-22T11:35:46.201Z,18.65
2022-10-22T11:38:18.332Z,18.65
2022-10-22T11:41:00.276Z,18.64
2022-10-22T11:43:32.587Z,18.69
2022-10-22T11:46:17.343Z,18.74
2022-10-22T11:48:48.644Z,18.77
2022-10-22T11:51:37.145Z,18.80
2022-10-22T11:54:40.352Z,18.85
2022-10-22T11:57:21.452Z,18.91
2022-10-22T12:00:00.845Z,18.99
2022-10-22T12:02:42.466Z,19.04
2022-10-22T12:05:28.048Z,19.04
2022-10-22T12:08:11.163Z,19.05
2022-10-22T12:11:04.577Z,19.10
2022-10-22T12:13:54.026Z,19.15
2022-10-22T12:16:54.712Z,19.20
2022-10-22T12:19:15.269Z,19.24
2022-10-22T12:21:48.052Z,19.22
2022-10-22T12:24:19.980Z,19.16
2022-10-22T12:26:49.406Z,19.11
2022-10-22T12:29:17.125Z,19.09
2022-10-22T12:31:46.903Z,19.06
2022-10-22T12:34:18.402Z,19.06
2022-10-22T12:36:49.238Z,19.07
2022-10-22T12:39:21.331Z,19.07
2022-10-22T12:41:48.930Z,19.07
2022-10-22T12:44:18.067Z,19.10
2022-10-22T12:46:48.030Z,19.12
2022-10-22T12:49:20.273Z,19.13
2022-10-22T12:51:49.056Z,19.11
2022-10-22T12:54:30.953Z,19.10
2022-10-22T12:56:58.825Z,19.10
2022-10-22T12:59:34.498Z,19.09
2022-10-22T13:02:07.862Z,19.04
2022-10-22T13:04:36.824Z,19.00
2022-10-22T13:07:19.929Z,18.95
2022-10-22T13:10:01.134Z,18.89
2022-10-22T13:12:35.789Z,18.85
2022-10-22T13:15:29.656Z,18.80
2022-10-22T13:18:22.178Z,18.77
2022-10-22T13:21:02.665Z,18.72
2022-10-22T13:23:33.438Z,18.69
2022-10-22T13:26:14.366Z,18.67
2022-10-22T13:28:43.141Z,18.65
2022-10-22T13:31:20.854Z,18.62
2022-10-22T13:33:59.487Z,18.60
2022-10-22T13:36:28.119Z,18.58
2022-10-22T13:38:55.730Z,18.55
2022-10-22T13:41:27.394Z,18.53
2022-10-22T13:43:55.341Z,18.50
2022-10-22T13:46:25.940Z,18.47
2022-10-22T13:48:55.914Z,18.45
2022-10-22T13:51:31.411Z,18.44
2022-10-22T13:53:59.058Z,18.42
2022-10-22T13:56:26.594Z,18.40
2022-10-22T13:58:54.079Z,18.39
2022-10-22T14:01:28.337Z,18.36
2022-10-22T14:04:01.347Z,18.34
2022-10-22T14:06:32.058Z,18.29
2022-10-22T14:09:04.265Z,18.24
2022-10-22T14:11:32.244Z,18.20
2022-10-22T14:13:59.721Z,18.16
2022-10-22T14:16:31.846Z,18.11
2022-10-22T14:19:00.877Z,18.07
2022-10-22T14:21:35.337Z,18.04
2022-10-22T14:24:04.485Z,18.01
2022-10-22T14:26:34.459Z,17.96
2022-10-22T14:29:11.412Z,17.93
2022-10-22T14:31:32.567Z,17.90
2022-10-22T14:33:59.901Z,17.86
2022-10-22T14:36:27.743Z,17.81
2022-10-22T14:38:55.508Z,17.76
2022-10-22T14:41:25.778Z,17.72
2022-10-22T14:43:54.898Z,17.69
2022-10-22T14:46:22.806Z,17.65
2022-10-22T14:48:50.426Z,17.58
2022-10-22T14:51:20.788Z,17.49
2022-10-22T14:53:48.676Z,17.45
2022-10-22T14:56:20.904Z,17.40
2022-10-22T14:58:49.532Z,17.32
2022-10-22T15:01:17.451Z,17.25
2022-10-22T15:03:44.937Z,17.17
2022-10-22T15:06:12.479Z,17.12
2022-10-22T15:08:40.130Z,17.06
2022-10-22T15:11:11.766Z,16.97
2022-10-22T15:13:40.789Z,16.90
2022-10-22T15:16:11.236Z,16.83
2022-10-22T15:18:38.814Z,16.75
2022-10-22T15:21:19.840Z,16.68
2022-10-22T15:23:49.022Z,16.60
2022-10-22T15:26:17.328Z,16.53
2022-10-22T15:28:44.860Z,16.47
2022-10-22T15:31:14.313Z,16.39
2022-10-22T15:33:43.719Z,16.31
2022-10-22T15:36:14.985Z,16.24
2022-10-22T15:38:42.491Z,16.16
2022-10-22T15:41:12.980Z,16.09
2022-10-22T15:43:40.470Z,16.01
2022-10-22T15:46:18.092Z,15.92
2022-10-22T15:48:46.178Z,15.85
2022-10-22T15:51:17.475Z,15.79
2022-10-22T15:53:54.728Z,15.73
2022-10-22T15:56:24.154Z,15.68
2022-10-22T15:59:03.591Z,15.62
2022-10-22T16:01:33.972Z,15.59
2022-10-22T16:04:04.543Z,15.54
2022-10-22T16:06:39.844Z,15.50
2022-10-22T16:09:10.533Z,15.46
2022-10-22T16:11:39.521Z,15.42
2022-10-22T16:14:09.929Z,15.40
2022-10-22T16:16:42.118Z,15.36
2022-10-22T16:19:12.675Z,15.36
2022-10-22T16:21:40.168Z,15.35
2022-10-22T16:24:09.395Z,15.37
2022-10-22T16:26:37.014Z,15.37
2022-10-22T16:29:06.769Z,15.41
2022-10-22T16:31:34.402Z,15.45
2022-10-22T16:34:02.463Z,15.51
2022-10-22T16:36:30.061Z,15.57
2022-10-22T16:38:57.752Z,15.62
2022-10-22T16:41:28.062Z,15.64
2022-10-22T16:43:55.544Z,15.69
2022-10-22T16:46:23.458Z,15.74
2022-10-22T16:48:53.387Z,15.73
2022-10-22T16:51:24.971Z,15.70
2022-10-22T16:53:54.701Z,15.70
2022-10-22T16:56:23.017Z,15.70
2022-10-22T16:58:54.155Z,15.69
2022-10-22T17:01:28.711Z,15.65
2022-10-22T17:04:01.279Z,15.59
2022-10-22T17:06:29.349Z,15.55
2022-10-22T17:08:56.992Z,15.50
2022-10-22T17:11:25.238Z,15.47
2022-10-22T17:13:54.426Z,15.42
2022-10-22T17:16:24.367Z,15.40
2022-10-22T17:18:54.099Z,15.36
2022-10-22T17:21:22.803Z,15.33
2022-10-22T17:23:55.025Z,15.28
2022-10-22T17:26:23.616Z,15.24
2022-10-22T17:28:51.085Z,15.20
2022-10-22T17:31:25.720Z,15.16
2022-10-22T17:33:56.008Z,15.11
2022-10-22T17:36:25.481Z,15.09
2022-10-22T17:38:55.907Z,15.10
2022-10-22T17:41:27.606Z,15.10
2022-10-22T17:43:56.798Z,15.09
2022-10-22T17:46:27.829Z,15.07
2022-10-22T17:48:59.089Z,15.07
2022-10-22T17:51:28.910Z,15.06
2022-10-22T17:53:57.101Z,15.05
2022-10-22T17:56:27.948Z,15.05
2022-10-22T17:58:56.430Z,15.05
2022-10-22T18:01:30.702Z,15.06
2022-10-22T18:04:07.648Z,15.10
2022-10-22T18:06:35.602Z,15.14
2022-10-22T18:09:07.770Z,15.19
2022-10-22T18:11:37.597Z,15.24
2022-10-22T18:14:05.306Z,15.27
2022-10-22T18:16:32.968Z,15.31
2022-10-22T18:19:01.310Z,15.38
2022-10-22T18:21:30.072Z,15.43
2022-10-22T18:23:59.017Z,15.40
2022-10-22T18:26:27.226Z,15.39
2022-10-22T18:28:57.247Z,15.38
2022-10-22T18:31:27.267Z,15.34
2022-10-22T18:33:55.687Z,15.30
2022-10-22T18:36:26.820Z,15.28
2022-10-22T18:39:00.332Z,15.23
2022-10-22T18:41:30.250Z,15.18
2022-10-22T18:44:01.777Z,15.14
2022-10-22T18:46:31.380Z,15.11
2022-10-22T18:48:59.064Z,15.06
2022-10-22T18:51:32.216Z,15.01
2022-10-22T18:54:22.106Z,14.96
2022-10-22T18:56:30.115Z,14.92
2022-10-22T18:58:59.513Z,14.90
2022-10-22T19:01:29.051Z,14.86
2022-10-22T19:03:56.924Z,14.85
2022-10-22T19:06:34.419Z,14.82
2022-10-22T19:09:01.278Z,14.80
2022-10-22T19:11:28.890Z,14.76
2022-10-22T19:13:56.595Z,14.74
2022-10-22T19:16:24.157Z,14.71
2022-10-22T19:19:06.272Z,14.69
2022-10-22T19:21:33.935Z,14.65
2022-10-22T19:24:01.920Z,14.65
2022-10-22T19:26:30.485Z,14.64
2022-10-22T19:28:59.536Z,14.63
2022-10-22T19:31:29.377Z,14.63
2022-10-22T19:33:58.885Z,14.64
2022-10-22T19:36:28.442Z,14.66
2022-10-22T19:38:57.543Z,14.66
2022-10-22T19:41:27.964Z,14.70
2022-10-22T19:43:57.332Z,14.69
2022-10-22T19:46:27.209Z,14.72
2022-10-22T19:48:56.495Z,14.74
2022-10-22T19:51:29.368Z,14.75
2022-10-22T19:54:00.837Z,14.80
2022-10-22T19:56:28.969Z,14.85
2022-10-22T19:58:57.286Z,14.87
2022-10-22T20:01:25.296Z,14.87
2022-10-22T20:03:53.623Z,14.88
2022-10-22T20:06:21.566Z,14.83
2022-10-22T20:08:51.126Z,14.79
2022-10-22T20:11:25.988Z,14.74
2022-10-22T20:13:54.095Z,14.72
2022-10-22T20:16:24.624Z,14.68
2022-10-22T20:18:52.858Z,14.66
2022-10-22T20:21:21.522Z,14.62
2022-10-22T20:23:55.824Z,14.58
2022-10-22T20:26:25.280Z,14.56
2022-10-22T20:28:57.272Z,14.54
2022-10-22T20:31:27.947Z,14.51
2022-10-22T20:33:58.275Z,14.47
2022-10-22T20:36:28.334Z,14.41
2022-10-22T20:39:05.248Z,14.36
2022-10-22T20:41:34.818Z,14.34
2022-10-22T20:44:02.119Z,14.31
2022-10-22T20:46:32.971Z,14.30
2022-10-22T20:49:07.803Z,14.28
2022-10-22T20:51:37.612Z,14.29
2022-10-22T20:54:06.990Z,14.29
2022-10-22T20:56:40.055Z,14.29
2022-10-22T20:59:10.345Z,14.32
2022-10-22T21:01:51.268Z,14.35
2022-10-22T21:04:21.146Z,14.38
2022-10-22T21:06:49.843Z,14.42
2022-10-22T21:09:17.382Z,14.43
2022-10-22T21:11:45.529Z,14.50
2022-10-22T21:14:18.535Z,14.56
2022-10-22T21:16:49.451Z,14.56
2022-10-22T21:19:19.412Z,14.56
2022-10-22T21:21:47.131Z,14.59
2022-10-22T21:24:15.034Z,14.61
2022-10-22T21:26:43.386Z,14.61
2022-10-22T21:29:13.085Z,14.64
2022-10-22T21:31:40.694Z,14.64
2022-10-22T21:34:08.063Z,14.62
2022-10-22T21:36:35.433Z,14.59
2022-10-22T21:39:03.165Z,14.55
2022-10-22T21:41:30.795Z,14.49
2022-10-22T21:43:59.227Z,14.41
2022-10-22T21:46:28.198Z,14.35
2022-10-22T21:49:01.346Z,14.29
2022-10-22T21:51:32.416Z,14.24
2022-10-22T21:53:59.900Z,14.20
2022-10-22T21:56:32.207Z,14.17
2022-10-22T21:59:02.198Z,14.15
2022-10-22T22:01:30.138Z,14.12
2022-10-22T22:03:58.547Z,14.10
2022-10-22T22:06:30.866Z,14.05
2022-10-22T22:08:58.386Z,14.01
2022-10-22T22:11:28.068Z,13.97
2022-10-22T22:13:57.275Z,13.92
2022-10-22T22:16:29.637Z,13.90
2022-10-22T22:19:00.305Z,13.87
2022-10-22T22:21:29.272Z,13.87
2022-10-22T22:23:58.140Z,13.86
2022-10-22T22:26:29.867Z,13.87
2022-10-22T22:28:59.301Z,13.90
2022-10-22T22:31:33.494Z,13.91
2022-10-22T22:34:07.680Z,13.87
2022-10-22T22:36:41.622Z,13.88
2022-10-22T22:39:13.668Z,13.88
2022-10-22T22:41:42.397Z,13.88
2022-10-22T22:44:09.981Z,13.90
2022-10-22T22:46:37.556Z,13.88
2022-10-22T22:49:05.513Z,13.88
2022-10-22T22:51:33.604Z,13.87
2022-10-22T22:54:01.778Z,13.84
2022-10-22T22:56:31.713Z,13.82
2022-10-22T22:58:59.288Z,13.78
2022-10-22T23:01:37.080Z,13.75
2022-10-22T23:04:24.927Z,13.72
2022-10-22T23:06:52.482Z,13.67
2022-10-22T23:11:48.461Z,13.61
2022-10-22T23:14:18.317Z,13.57
2022-10-22T23:16:49.838Z,13.53
2022-10-22T23:19:21.014Z,13.51
2022-10-22T23:21:52.715Z,13.53
2022-10-22T23:24:24.629Z,13.55
2022-10-22T23:26:54.571Z,13.57
2022-10-22T23:29:29.541Z,13.59
2022-10-22T23:32:00.918Z,13.61
2022-10-22T23:34:30.536Z,13.65
2022-10-22T23:36:59.078Z,13.70
2022-10-22T23:39:28.749Z,13.73
2022-10-22T23:41:57.151Z,13.75
2022-10-22T23:44:25.616Z,13.72
2022-10-22T23:46:53.633Z,13.68
2022-10-22T23:49:21.231Z,13.66
2022-10-22T23:51:49.056Z,13.59
2022-10-22T23:54:19.477Z,13.53
2022-10-22T23:56:47.473Z,13.53
2022-10-22T23:59:15.806Z,13.53
